Dati Storici

Data ora Umidita' aria (%) Temperatura aria (°C) Rad globale (W/m²) Gonioanemometro (°) Tacoanemometro (m/s) Pioggia (mm)
18-12-2018 17:00 72.9 % 3.976 12.516 236.093 0.049 0
18-12-2018 16:50 72.8 % 4.618 12.477 17.997 0.05 0
18-12-2018 16:40 73 % 4.782 13.09 250.441 0.456 0
18-12-2018 16:30 69.8 % 4.922 15.324 113.477 0.049 0
18-12-2018 16:20 69.7 % 5.592 19.415 177.139 0.581 0
18-12-2018 16:10 68.7 % 5.997 28.674 160.302 0.681 0
18-12-2018 16:00 67.2 % 6.463 47.365 132.22 0.269 0
18-12-2018 15:50 65 % 6.815 76.378 112.705 1.152 0
18-12-2018 15:40 64.2 % 7.209 95.42 111.052 0.926 0
18-12-2018 15:30 63.4 % 7.202 115.353 104.471 1.124 0
18-12-2018 15:20 61.8 % 7.693 136.954 104.161 1.734 0
18-12-2018 15:10 60.3 % 8.486 154.68 114.298 1.066 0
18-12-2018 15:00 58.2 % 8.918 176.262 117.855 0.286 0
18-12-2018 14:50 58.7 % 8.964 194.835 97.53 1.192 0
18-12-2018 14:40 56.3 % 8.822 215.341 1.005 0.102 0
18-12-2018 14:30 55.9 % 9.273 235.754 290.902 0.694 0
18-12-2018 14:20 57 % 9.073 253.929 159.153 0.146 0
18-12-2018 14:10 56.9 % 8.949 269.304 42.347 0.723 0
18-12-2018 14:00 57.1 % 8.64 286.502 306.265 2.168 0
18-12-2018 13:50 58.2 % 8.938 300.167 33.845 0.565 0

I dati sono presentati in modo automatico a scopo informativo. In seguito a verifica i dati possono subire modifiche o essere invalidati e non riportati negli archivi definitivi.